createdAt,value
2023-03-08T00:00:29.344Z,13.70
2023-03-08T00:03:16.874Z,13.70
2023-03-08T00:06:11.547Z,13.40
2023-03-08T00:09:01.733Z,13.70
2023-03-08T00:11:49.174Z,13.70
2023-03-08T00:14:36.778Z,13.90
2023-03-08T00:17:24.850Z,13.50
2023-03-08T00:20:14.690Z,13.80
2023-03-08T00:23:02.149Z,13.60
2023-03-08T00:25:53.731Z,13.60
2023-03-08T00:28:42.021Z,13.50
2023-03-08T00:31:29.576Z,13.90
2023-03-08T00:34:17.728Z,13.80
2023-03-08T00:37:05.218Z,13.90
2023-03-08T00:39:54.030Z,13.70
2023-03-08T00:42:41.450Z,13.60
2023-03-08T00:45:28.875Z,13.20
2023-03-08T00:48:16.513Z,13.30
2023-03-08T00:51:04.789Z,13.50
2023-03-08T00:53:52.685Z,13.40
2023-03-08T00:56:40.297Z,13.40
2023-03-08T00:59:27.778Z,13.70
2023-03-08T01:02:15.264Z,13.40
2023-03-08T01:05:02.742Z,13.50
2023-03-08T01:07:50.714Z,13.10
2023-03-08T01:10:38.564Z,13.20
2023-03-08T01:13:33.134Z,13.10
2023-03-08T01:16:28.150Z,13.10
2023-03-08T01:19:15.553Z,12.70
2023-03-08T01:22:03.016Z,12.90
2023-03-08T01:24:51.045Z,12.60
2023-03-08T01:27:38.544Z,12.90
2023-03-08T01:30:26.113Z,12.70
2023-03-08T01:33:13.580Z,12.70
2023-03-08T01:36:08.066Z,12.70
2023-03-08T01:38:56.175Z,12.50
2023-03-08T01:41:43.778Z,12.20
2023-03-08T01:44:54.680Z,12.00
2023-03-08T01:47:42.080Z,12.20
2023-03-08T01:50:29.818Z,12.20
2023-03-08T01:53:18.012Z,12.30
2023-03-08T01:56:12.683Z,12.50
2023-03-08T01:59:02.098Z,12.00
2023-03-08T02:01:50.220Z,12.00
2023-03-08T02:04:40.635Z,12.30
2023-03-08T02:07:28.251Z,12.10
2023-03-08T02:10:18.239Z,12.10
2023-03-08T02:13:08.132Z,12.20
2023-03-08T02:15:58.725Z,12.10
2023-03-08T02:19:03.107Z,12.30
2023-03-08T02:21:50.611Z,12.00
2023-03-08T02:24:38.259Z,12.20
2023-03-08T02:27:28.685Z,12.10
2023-03-08T02:30:23.566Z,11.70
2023-03-08T02:33:11.122Z,12.10
2023-03-08T02:35:58.918Z,12.20
2023-03-08T02:38:46.350Z,12.20
2023-03-08T02:41:33.860Z,12.20
2023-03-08T02:44:21.315Z,12.30
2023-03-08T02:47:09.436Z,12.20
2023-03-08T02:49:56.853Z,12.20
2023-03-08T02:52:44.358Z,12.20
2023-03-08T02:55:31.832Z,12.10
2023-03-08T02:58:19.323Z,12.10
2023-03-08T03:01:13.282Z,12.20
2023-03-08T03:04:00.827Z,12.10
2023-03-08T03:06:48.432Z,12.10
2023-03-08T03:09:36.643Z,12.20
2023-03-08T03:12:24.148Z,12.10
2023-03-08T03:15:12.340Z,12.10
2023-03-08T03:18:00.365Z,12.10
2023-03-08T03:20:47.828Z,12.20
2023-03-08T03:23:35.642Z,11.90
2023-03-08T03:26:25.409Z,12.20
2023-03-08T03:29:12.925Z,11.70
2023-03-08T03:32:00.442Z,11.90
2023-03-08T03:34:48.009Z,12.10
2023-03-08T03:37:36.676Z,12.10
2023-03-08T03:40:24.134Z,12.00
2023-03-08T03:43:11.690Z,12.00
2023-03-08T03:46:02.476Z,12.10
2023-03-08T03:48:50.263Z,11.90
2023-03-08T03:51:37.721Z,11.90
2023-03-08T03:54:25.353Z,12.00
2023-03-08T03:57:12.775Z,12.10
2023-03-08T04:00:00.337Z,12.20
2023-03-08T04:02:47.744Z,12.20
2023-03-08T04:05:35.322Z,12.30
2023-03-08T04:08:22.803Z,12.20
2023-03-08T04:11:23.254Z,12.10
2023-03-08T04:14:11.722Z,11.90
2023-03-08T04:16:59.232Z,12.00
2023-03-08T04:19:50.611Z,12.00
2023-03-08T04:22:38.279Z,11.90
2023-03-08T04:25:25.964Z,11.90
2023-03-08T04:28:13.514Z,11.80
2023-03-08T04:31:13.636Z,11.90
2023-03-08T04:34:02.553Z,11.80
2023-03-08T04:36:50.062Z,11.90
2023-03-08T04:39:37.597Z,11.80
2023-03-08T04:42:25.227Z,11.70
2023-03-08T04:45:12.819Z,11.50
2023-03-08T04:48:00.309Z,11.40
2023-03-08T04:51:01.323Z,11.20
2023-03-08T04:53:48.970Z,10.70
2023-03-08T04:56:36.527Z,9.80
2023-03-08T04:59:24.145Z,9.90
2023-03-08T05:02:11.809Z,10.40
2023-03-08T05:04:59.351Z,10.50
2023-03-08T05:07:46.888Z,10.30
2023-03-08T05:10:34.420Z,10.40
2023-03-08T05:13:21.968Z,10.20
2023-03-08T05:16:09.601Z,9.60
2023-03-08T05:18:57.294Z,9.90
2023-03-08T05:21:44.802Z,9.90
2023-03-08T05:24:32.624Z,9.60
2023-03-08T05:27:20.062Z,9.80
2023-03-08T05:30:08.386Z,9.80
2023-03-08T05:32:55.913Z,9.90
2023-03-08T05:35:43.511Z,9.90
2023-03-08T05:38:31.226Z,10.00
2023-03-08T05:41:18.736Z,10.10
2023-03-08T05:44:06.214Z,10.20
2023-03-08T05:46:54.068Z,9.80
2023-03-08T05:49:41.566Z,9.90
2023-03-08T05:52:34.942Z,10.00
2023-03-08T05:55:22.391Z,9.90
2023-03-08T05:58:09.898Z,9.90
2023-03-08T06:00:57.387Z,9.80
2023-03-08T06:03:47.520Z,9.90
2023-03-08T06:06:35.154Z,10.10
2023-03-08T06:09:22.594Z,10.20
2023-03-08T06:12:10.189Z,10.40
2023-03-08T06:14:57.659Z,10.50
2023-03-08T06:17:45.149Z,10.70
2023-03-08T06:20:33.019Z,10.80
2023-03-08T06:23:20.422Z,10.90
2023-03-08T06:26:10.398Z,11.00
2023-03-08T06:28:57.966Z,11.20
2023-03-08T06:31:45.419Z,10.90
2023-03-08T06:34:33.249Z,11.20
2023-03-08T06:37:20.689Z,11.10
2023-03-08T06:40:09.663Z,11.50
2023-03-08T06:42:57.102Z,12.00
2023-03-08T06:45:44.654Z,12.00
2023-03-08T06:48:32.740Z,12.00
2023-03-08T06:51:20.326Z,12.50
2023-03-08T06:54:07.821Z,12.90
2023-03-08T06:56:55.379Z,13.00
2023-03-08T06:59:42.866Z,13.40
2023-03-08T07:02:30.293Z,13.60
2023-03-08T07:05:17.854Z,13.90
2023-03-08T07:08:06.018Z,14.40
2023-03-08T07:10:53.585Z,14.40
2023-03-08T07:13:41.168Z,14.20
2023-03-08T07:16:28.752Z,14.20
2023-03-08T07:19:16.266Z,14.40
2023-03-08T07:22:04.076Z,14.90
2023-03-08T07:24:52.895Z,14.70
2023-03-08T07:27:40.744Z,14.90
2023-03-08T07:30:29.072Z,14.70
2023-03-08T07:33:18.076Z,15.20
2023-03-08T07:36:06.210Z,15.30
2023-03-08T07:38:53.683Z,15.50
2023-03-08T07:41:41.123Z,15.80
2023-03-08T07:44:28.743Z,15.90
2023-03-08T07:47:16.351Z,15.90
2023-03-08T07:50:04.348Z,16.00
2023-03-08T07:52:51.841Z,15.90
2023-03-08T07:55:39.282Z,16.20
2023-03-08T07:58:28.267Z,16.30
2023-03-08T08:01:15.810Z,16.30
2023-03-08T08:04:03.848Z,16.70
2023-03-08T08:06:51.360Z,16.60
2023-03-08T08:09:39.536Z,16.70
2023-03-08T08:12:26.996Z,17.10
2023-03-08T08:15:16.917Z,17.30
2023-03-08T08:18:04.772Z,17.60
2023-03-08T08:21:17.803Z,17.60
2023-03-08T08:24:05.826Z,17.60
2023-03-08T08:26:53.929Z,17.90
2023-03-08T08:29:41.469Z,17.40
2023-03-08T08:32:29.040Z,17.60
2023-03-08T08:35:16.614Z,17.80
2023-03-08T08:38:04.143Z,18.00
2023-03-08T08:40:52.166Z,17.40
2023-03-08T08:43:39.711Z,17.40
2023-03-08T08:46:28.319Z,17.90
2023-03-08T08:49:15.857Z,18.30
2023-03-08T08:52:03.636Z,18.20
2023-03-08T08:54:53.920Z,18.60
2023-03-08T08:57:41.426Z,18.30
2023-03-08T09:00:30.170Z,17.30
2023-03-08T09:03:17.769Z,17.00
2023-03-08T09:06:05.609Z,16.60
2023-03-08T09:08:59.703Z,16.90
2023-03-08T09:11:55.244Z,16.90
2023-03-08T09:14:43.595Z,16.70
2023-03-08T09:17:31.077Z,17.50
2023-03-08T09:20:20.515Z,17.70
2023-03-08T09:23:10.303Z,18.10
2023-03-08T09:26:00.884Z,18.20
2023-03-08T09:28:49.954Z,18.30
2023-03-08T09:31:39.556Z,18.50
2023-03-08T09:34:27.768Z,18.90
2023-03-08T09:37:15.259Z,19.30
2023-03-08T09:40:09.533Z,19.20
2023-03-08T09:43:04.422Z,19.40
2023-03-08T09:45:55.392Z,19.50
2023-03-08T09:48:49.020Z,19.80
2023-03-08T09:51:43.101Z,19.50
2023-03-08T09:54:35.303Z,19.40
2023-03-08T09:57:42.193Z,19.80
2023-03-08T10:00:35.695Z,19.80
2023-03-08T10:03:41.345Z,19.80
2023-03-08T10:06:40.308Z,19.40
2023-03-08T10:09:40.171Z,19.80
2023-03-08T10:12:33.801Z,19.70
2023-03-08T10:15:25.209Z,19.00
2023-03-08T10:18:37.400Z,19.60
2023-03-08T10:21:27.421Z,19.70
2023-03-08T10:24:27.220Z,20.00
2023-03-08T10:27:26.414Z,20.20
2023-03-08T10:30:19.773Z,20.20
2023-03-08T10:33:14.776Z,20.10
2023-03-08T10:36:24.415Z,20.30
2023-03-08T10:39:11.913Z,20.30
2023-03-08T10:42:16.729Z,20.80
2023-03-08T10:45:22.553Z,20.80
2023-03-08T10:48:21.605Z,20.70
2023-03-08T10:51:28.372Z,20.90
2023-03-08T10:54:15.979Z,20.70
2023-03-08T10:57:03.718Z,21.10
2023-03-08T10:59:51.335Z,19.90
2023-03-08T11:02:38.928Z,21.10
2023-03-08T11:05:27.431Z,21.00
2023-03-08T11:08:27.433Z,21.40
2023-03-08T11:11:15.044Z,21.70
2023-03-08T11:14:05.613Z,22.00
2023-03-08T11:17:05.789Z,21.10
2023-03-08T11:20:10.759Z,20.90
2023-03-08T11:23:12.951Z,21.00
2023-03-08T11:26:16.710Z,21.10
2023-03-08T11:29:24.465Z,21.20
2023-03-08T11:32:54.436Z,21.20
2023-03-08T11:35:54.493Z,21.10
2023-03-08T11:38:43.383Z,20.60
2023-03-08T11:42:12.447Z,20.70
2023-03-08T11:45:29.814Z,20.80
2023-03-08T11:48:47.778Z,20.70
2023-03-08T11:52:02.661Z,20.40
2023-03-08T11:56:01.102Z,20.60
2023-03-08T11:58:53.075Z,20.50
2023-03-08T12:02:07.770Z,20.50
2023-03-08T12:05:26.772Z,20.30
2023-03-08T12:08:35.386Z,20.30
2023-03-08T12:11:41.361Z,20.20
2023-03-08T12:14:46.977Z,19.80
2023-03-08T12:17:47.700Z,18.80
2023-03-08T12:20:42.162Z,20.10
2023-03-08T12:24:00.440Z,18.90
2023-03-08T12:27:02.382Z,19.70
2023-03-08T12:30:05.846Z,19.90
2023-03-08T12:32:56.604Z,18.90
2023-03-08T12:35:58.558Z,18.90
2023-03-08T12:38:48.944Z,18.50
2023-03-08T12:41:36.571Z,19.20
2023-03-08T12:44:29.344Z,19.50
2023-03-08T12:47:23.209Z,19.80
2023-03-08T12:50:18.447Z,19.20
2023-03-08T12:53:43.525Z,18.80
2023-03-08T12:56:48.837Z,19.50
2023-03-08T12:59:39.877Z,19.50
2023-03-08T13:02:33.254Z,19.60
2023-03-08T13:05:32.620Z,19.60
2023-03-08T13:08:36.749Z,19.80
2023-03-08T13:11:37.370Z,19.80
2023-03-08T13:15:01.878Z,19.70
2023-03-08T13:17:52.122Z,19.70
2023-03-08T13:21:25.868Z,19.80
2023-03-08T13:24:36.799Z,19.80
2023-03-08T13:28:01.030Z,19.80
2023-03-08T13:30:58.999Z,19.60
2023-03-08T13:33:53.195Z,19.30
2023-03-08T13:36:40.790Z,19.50
2023-03-08T13:39:31.814Z,19.40
2023-03-08T13:42:24.788Z,19.40
2023-03-08T13:45:18.757Z,19.60
2023-03-08T13:48:09.341Z,19.80
2023-03-08T13:50:59.026Z,19.60
2023-03-08T13:53:47.357Z,19.90
2023-03-08T13:56:36.864Z,19.80
2023-03-08T13:59:24.462Z,19.90
2023-03-08T14:02:25.923Z,19.90
2023-03-08T14:05:23.996Z,19.90
2023-03-08T14:08:26.983Z,20.20
2023-03-08T14:11:24.847Z,20.00
2023-03-08T14:14:28.074Z,20.00
2023-03-08T14:17:32.560Z,19.90
2023-03-08T14:20:25.119Z,19.70
2023-03-08T14:23:25.030Z,19.60
2023-03-08T14:26:35.721Z,19.30
2023-03-08T14:29:29.892Z,19.30
2023-03-08T14:32:17.444Z,19.20
2023-03-08T14:35:16.582Z,19.20
2023-03-08T14:38:13.573Z,19.20
2023-03-08T14:41:10.356Z,19.00
2023-03-08T14:43:58.136Z,19.10
2023-03-08T14:46:46.196Z,19.00
2023-03-08T14:49:33.869Z,19.00
2023-03-08T14:52:22.131Z,19.10
2023-03-08T14:55:32.416Z,19.10
2023-03-08T14:58:33.249Z,19.10
2023-03-08T15:01:32.899Z,18.80
2023-03-08T15:04:24.917Z,19.20
2023-03-08T15:07:21.628Z,19.00
2023-03-08T15:10:40.200Z,19.10
2023-03-08T15:13:27.734Z,19.20
2023-03-08T15:16:15.214Z,19.20
2023-03-08T15:19:02.705Z,19.20
2023-03-08T15:21:50.263Z,19.20
2023-03-08T15:24:37.712Z,19.30
2023-03-08T15:27:25.167Z,19.30
2023-03-08T15:30:23.357Z,19.20
2023-03-08T15:33:11.200Z,19.10
2023-03-08T15:35:59.129Z,19.10
2023-03-08T15:38:46.947Z,19.00
2023-03-08T15:41:34.431Z,19.00
2023-03-08T15:44:21.868Z,18.90
2023-03-08T15:47:10.343Z,18.90
2023-03-08T15:49:57.826Z,18.80
2023-03-08T15:52:45.905Z,18.70
2023-03-08T15:55:33.504Z,18.70
2023-03-08T15:58:20.968Z,18.70
2023-03-08T16:01:08.468Z,18.60
2023-03-08T16:03:57.693Z,18.50
2023-03-08T16:06:45.146Z,18.50
2023-03-08T16:09:32.628Z,18.60
2023-03-08T16:12:20.363Z,18.60
2023-03-08T16:15:08.903Z,18.60
2023-03-08T16:17:56.356Z,18.60
2023-03-08T16:20:46.320Z,18.60
2023-03-08T16:23:33.911Z,18.90
2023-03-08T16:26:22.014Z,18.80
2023-03-08T16:29:10.210Z,18.90
2023-03-08T16:31:58.624Z,18.50
2023-03-08T16:34:51.198Z,18.20
2023-03-08T16:37:38.752Z,18.20
2023-03-08T16:40:31.247Z,18.30
2023-03-08T16:43:18.789Z,18.00
2023-03-08T16:46:06.398Z,18.30
2023-03-08T16:48:56.122Z,18.50
2023-03-08T16:51:43.986Z,18.60
2023-03-08T16:54:31.695Z,18.30
2023-03-08T16:57:20.877Z,18.60
2023-03-08T17:00:12.732Z,18.40
2023-03-08T17:03:00.182Z,18.30
2023-03-08T17:05:48.559Z,18.40
2023-03-08T17:08:36.252Z,18.60
2023-03-08T17:11:27.269Z,18.00
2023-03-08T17:14:15.426Z,18.20
2023-03-08T17:17:04.704Z,18.40
2023-03-08T17:19:54.074Z,18.40
2023-03-08T17:22:41.641Z,18.20
2023-03-08T17:25:29.078Z,18.20
2023-03-08T17:28:16.611Z,18.20
2023-03-08T17:31:09.993Z,17.90
2023-03-08T17:33:57.551Z,17.90
2023-03-08T17:36:46.828Z,18.10
2023-03-08T17:39:34.378Z,18.00
2023-03-08T17:42:21.858Z,17.90
2023-03-08T17:45:10.116Z,17.70
2023-03-08T17:48:01.364Z,17.90
2023-03-08T17:50:50.233Z,18.10
2023-03-08T17:53:38.174Z,17.90
2023-03-08T17:56:30.035Z,17.60
2023-03-08T17:59:18.049Z,17.70
2023-03-08T18:02:05.885Z,17.60
2023-03-08T18:04:55.864Z,17.60
2023-03-08T18:07:43.394Z,17.00
2023-03-08T18:10:30.845Z,17.20
2023-03-08T18:13:18.331Z,17.60
2023-03-08T18:16:06.230Z,17.40
2023-03-08T18:18:53.709Z,17.50
2023-03-08T18:21:41.799Z,17.60
2023-03-08T18:24:29.374Z,17.50
2023-03-08T18:27:17.009Z,17.40
2023-03-08T18:30:05.295Z,17.40
2023-03-08T18:32:52.822Z,17.40
2023-03-08T18:35:40.347Z,17.40
2023-03-08T18:38:28.154Z,17.30
2023-03-08T18:41:27.359Z,17.30
2023-03-08T18:44:14.840Z,17.30
2023-03-08T18:47:02.369Z,17.00
2023-03-08T18:49:49.842Z,17.00
2023-03-08T18:52:37.314Z,16.70
2023-03-08T18:55:27.648Z,16.40
2023-03-08T18:58:15.152Z,16.50
2023-03-08T19:01:03.156Z,16.60
2023-03-08T19:03:51.008Z,16.60
2023-03-08T19:06:38.965Z,16.70
2023-03-08T19:09:26.486Z,16.70
2023-03-08T19:12:14.175Z,16.80
2023-03-08T19:15:02.004Z,16.40
2023-03-08T19:17:49.472Z,16.30
2023-03-08T19:20:39.268Z,16.40
2023-03-08T19:23:26.731Z,16.50
2023-03-08T19:26:37.259Z,16.60
2023-03-08T19:29:31.554Z,16.70
2023-03-08T19:32:19.049Z,16.40
2023-03-08T19:35:07.222Z,16.10
2023-03-08T19:37:54.745Z,16.30
2023-03-08T19:40:45.534Z,16.30
2023-03-08T19:43:32.991Z,16.30
2023-03-08T19:46:20.847Z,16.40
2023-03-08T19:49:13.626Z,16.40
2023-03-08T19:52:05.270Z,16.30
2023-03-08T19:54:52.878Z,16.30
2023-03-08T19:57:42.179Z,16.10
2023-03-08T20:00:29.619Z,16.00
2023-03-08T20:03:18.977Z,16.00
2023-03-08T20:06:07.220Z,15.90
2023-03-08T20:08:57.034Z,15.90
2023-03-08T20:11:44.867Z,15.80
2023-03-08T20:14:32.328Z,16.00
2023-03-08T20:17:19.788Z,15.90
2023-03-08T20:20:08.041Z,15.90
2023-03-08T20:22:55.537Z,15.80
2023-03-08T20:25:46.194Z,15.80
2023-03-08T20:28:33.857Z,15.80
2023-03-08T20:31:23.371Z,15.80
2023-03-08T20:34:11.090Z,15.60
2023-03-08T20:36:58.545Z,15.30
2023-03-08T20:39:49.993Z,15.30
2023-03-08T20:42:37.451Z,15.50
2023-03-08T20:45:25.765Z,15.40
2023-03-08T20:48:13.206Z,15.00
2023-03-08T20:51:02.284Z,15.00
2023-03-08T20:53:52.838Z,15.10
2023-03-08T20:56:40.442Z,15.10
2023-03-08T20:59:28.210Z,15.20
2023-03-08T21:02:17.818Z,15.30
2023-03-08T21:05:07.318Z,15.30
2023-03-08T21:07:55.458Z,15.20
2023-03-08T21:10:42.949Z,15.20
2023-03-08T21:13:30.417Z,15.30
2023-03-08T21:16:20.499Z,15.30
2023-03-08T21:19:09.056Z,15.30
2023-03-08T21:21:56.561Z,15.30
2023-03-08T21:24:44.037Z,15.20
2023-03-08T21:27:31.668Z,15.30
2023-03-08T21:30:20.394Z,15.20
2023-03-08T21:33:08.027Z,15.40
2023-03-08T21:35:57.534Z,15.30
2023-03-08T21:38:45.373Z,15.20
2023-03-08T21:41:37.978Z,15.50
2023-03-08T21:44:26.470Z,15.60
2023-03-08T21:47:14.001Z,15.60
2023-03-08T21:50:01.550Z,15.70
2023-03-08T21:52:49.119Z,15.70
2023-03-08T21:55:41.301Z,15.80
2023-03-08T21:58:28.879Z,15.70
2023-03-08T22:01:32.834Z,15.80
2023-03-08T22:04:20.616Z,15.80
2023-03-08T22:07:08.078Z,15.80
2023-03-08T22:09:55.540Z,15.90
2023-03-08T22:12:43.035Z,15.70
2023-03-08T22:15:30.629Z,15.80
2023-03-08T22:18:18.135Z,16.00
2023-03-08T22:21:05.816Z,15.90
2023-03-08T22:23:56.440Z,16.10
2023-03-08T22:26:43.982Z,16.20
2023-03-08T22:29:31.794Z,16.20
2023-03-08T22:32:20.268Z,16.50
2023-03-08T22:35:10.552Z,16.40
2023-03-08T22:37:58.003Z,16.30
2023-03-08T22:40:45.927Z,16.30
2023-03-08T22:43:33.367Z,16.40
2023-03-08T22:46:27.653Z,16.40
2023-03-08T22:49:17.046Z,16.50
2023-03-08T22:52:07.160Z,16.50
2023-03-08T22:54:54.602Z,16.60
2023-03-08T22:57:42.182Z,16.60
2023-03-08T23:00:30.166Z,16.70
2023-03-08T23:03:17.938Z,16.80
2023-03-08T23:06:06.583Z,16.80
2023-03-08T23:08:56.368Z,16.80
2023-03-08T23:11:44.836Z,16.90
2023-03-08T23:14:34.752Z,17.00
2023-03-08T23:17:22.217Z,17.10
2023-03-08T23:20:11.997Z,17.00
2023-03-08T23:22:59.501Z,17.20
2023-03-08T23:25:46.997Z,17.20
2023-03-08T23:28:35.734Z,17.10
2023-03-08T23:31:27.959Z,16.60
2023-03-08T23:34:15.535Z,17.10
2023-03-08T23:37:04.334Z,17.20
2023-03-08T23:39:51.811Z,17.10
2023-03-08T23:42:39.287Z,17.10
2023-03-08T23:45:26.817Z,17.10
2023-03-08T23:48:14.293Z,17.00
2023-03-08T23:51:09.412Z,16.50
2023-03-08T23:53:59.891Z,16.50
2023-03-08T23:56:47.366Z,16.70
2023-03-08T23:59:34.844Z,16.50
